sensor_id;sensor_type;location;lat;lon;timestamp;temperature;humidity
67141;DHT22;54058;52.010;5.546;2024-01-07T00:00:34;2.40;99.90
67141;DHT22;54058;52.010;5.546;2024-01-07T00:03:00;2.30;99.90
67141;DHT22;54058;52.010;5.546;2024-01-07T00:05:26;2.30;99.90
67141;DHT22;54058;52.010;5.546;2024-01-07T00:07:51;2.30;99.90
67141;DHT22;54058;52.010;5.546;2024-01-07T00:10:17;2.40;99.90
67141;DHT22;54058;52.010;5.546;2024-01-07T00:12:43;2.40;99.90
67141;DHT22;54058;52.010;5.546;2024-01-07T00:15:09;2.40;99.90
67141;DHT22;54058;52.010;5.546;2024-01-07T00:17:35;2.30;99.90
67141;DHT22;54058;52.010;5.546;2024-01-07T00:20:01;2.40;99.90
67141;DHT22;54058;52.010;5.546;2024-01-07T00:22:26;2.40;99.90
67141;DHT22;54058;52.010;5.546;2024-01-07T00:24:52;2.30;99.90
67141;DHT22;54058;52.010;5.546;2024-01-07T00:27:17;2.40;99.90
67141;DHT22;54058;52.010;5.546;2024-01-07T00:29:43;2.30;99.90
67141;DHT22;54058;52.010;5.546;2024-01-07T00:32:09;2.30;99.90
67141;DHT22;54058;52.010;5.546;2024-01-07T00:34:34;2.30;99.90
67141;DHT22;54058;52.010;5.546;2024-01-07T00:37:00;2.30;99.90
67141;DHT22;54058;52.010;5.546;2024-01-07T00:39:25;2.30;99.90
67141;DHT22;54058;52.010;5.546;2024-01-07T00:41:51;2.30;99.90
67141;DHT22;54058;52.010;5.546;2024-01-07T00:44:16;2.30;99.90
67141;DHT22;54058;52.010;5.546;2024-01-07T00:46:42;2.30;99.90
67141;DHT22;54058;52.010;5.546;2024-01-07T00:49:08;2.30;99.90
67141;DHT22;54058;52.010;5.546;2024-01-07T00:51:33;2.20;99.90
67141;DHT22;54058;52.010;5.546;2024-01-07T00:53:59;2.20;99.90
67141;DHT22;54058;52.010;5.546;2024-01-07T00:56:28;2.20;99.90
67141;DHT22;54058;52.010;5.546;2024-01-07T00:58:53;2.20;99.90
67141;DHT22;54058;52.010;5.546;2024-01-07T01:01:19;2.20;99.90
67141;DHT22;54058;52.010;5.546;2024-01-07T01:03:44;2.20;99.90
67141;DHT22;54058;52.010;5.546;2024-01-07T01:06:10;2.20;99.90
67141;DHT22;54058;52.010;5.546;2024-01-07T01:08:35;2.20;99.90
67141;DHT22;54058;52.010;5.546;2024-01-07T01:11:01;2.30;99.90
67141;DHT22;54058;52.010;5.546;2024-01-07T01:13:27;2.20;99.90
67141;DHT22;54058;52.010;5.546;2024-01-07T01:15:52;2.20;99.90
67141;DHT22;54058;52.010;5.546;2024-01-07T01:18:18;2.20;99.90
67141;DHT22;54058;52.010;5.546;2024-01-07T01:20:44;2.20;99.90
67141;DHT22;54058;52.010;5.546;2024-01-07T01:23:09;2.20;99.90
67141;DHT22;54058;52.010;5.546;2024-01-07T01:25:35;2.20;99.90
67141;DHT22;54058;52.010;5.546;2024-01-07T01:28:01;2.20;99.90
67141;DHT22;54058;52.010;5.546;2024-01-07T01:30:27;2.20;99.90
67141;DHT22;54058;52.010;5.546;2024-01-07T01:32:56;2.20;99.90
67141;DHT22;54058;52.010;5.546;2024-01-07T01:35:21;2.20;99.90
67141;DHT22;54058;52.010;5.546;2024-01-07T01:37:47;2.20;99.90
67141;DHT22;54058;52.010;5.546;2024-01-07T01:40:12;2.20;99.90
67141;DHT22;54058;52.010;5.546;2024-01-07T01:42:38;2.20;99.90
67141;DHT22;54058;52.010;5.546;2024-01-07T01:45:04;2.10;99.90
67141;DHT22;54058;52.010;5.546;2024-01-07T01:47:30;2.10;99.90
67141;DHT22;54058;52.010;5.546;2024-01-07T01:49:57;2.10;99.90
67141;DHT22;54058;52.010;5.546;2024-01-07T01:52:23;2.20;99.90
67141;DHT22;54058;52.010;5.546;2024-01-07T01:54:48;2.20;99.90
67141;DHT22;54058;52.010;5.546;2024-01-07T01:57:18;2.20;99.90
67141;DHT22;54058;52.010;5.546;2024-01-07T01:59:45;2.20;99.90
67141;DHT22;54058;52.010;5.546;2024-01-07T02:02:11;2.20;99.90
67141;DHT22;54058;52.010;5.546;2024-01-07T02:04:37;2.20;99.90
67141;DHT22;54058;52.010;5.546;2024-01-07T02:07:03;2.20;99.90
67141;DHT22;54058;52.010;5.546;2024-01-07T02:09:28;2.20;99.90
67141;DHT22;54058;52.010;5.546;2024-01-07T02:12:03;2.20;99.90
67141;DHT22;54058;52.010;5.546;2024-01-07T02:14:31;2.20;99.90
67141;DHT22;54058;52.010;5.546;2024-01-07T02:16:56;2.10;99.90
67141;DHT22;54058;52.010;5.546;2024-01-07T02:19:22;2.10;99.90
67141;DHT22;54058;52.010;5.546;2024-01-07T02:21:50;2.10;99.90
67141;DHT22;54058;52.010;5.546;2024-01-07T02:24:16;2.20;99.90
67141;DHT22;54058;52.010;5.546;2024-01-07T02:26:42;2.20;99.90
67141;DHT22;54058;52.010;5.546;2024-01-07T02:29:08;2.20;99.90
67141;DHT22;54058;52.010;5.546;2024-01-07T02:31:35;2.20;99.90
67141;DHT22;54058;52.010;5.546;2024-01-07T02:34:05;2.20;99.90
67141;DHT22;54058;52.010;5.546;2024-01-07T02:36:31;2.10;99.90
67141;DHT22;54058;52.010;5.546;2024-01-07T02:38:57;2.10;99.90
67141;DHT22;54058;52.010;5.546;2024-01-07T02:41:23;2.10;99.90
67141;DHT22;54058;52.010;5.546;2024-01-07T02:43:51;2.10;99.90
67141;DHT22;54058;52.010;5.546;2024-01-07T02:46:16;2.10;99.90
67141;DHT22;54058;52.010;5.546;2024-01-07T02:48:42;2.10;99.90
67141;DHT22;54058;52.010;5.546;2024-01-07T02:51:08;2.10;99.90
67141;DHT22;54058;52.010;5.546;2024-01-07T02:53:34;2.10;99.90
67141;DHT22;54058;52.010;5.546;2024-01-07T02:56:00;2.10;99.90
67141;DHT22;54058;52.010;5.546;2024-01-07T02:58:25;2.10;99.90
67141;DHT22;54058;52.010;5.546;2024-01-07T03:00:51;2.10;99.90
67141;DHT22;54058;52.010;5.546;2024-01-07T03:03:17;2.10;99.90
67141;DHT22;54058;52.010;5.546;2024-01-07T03:05:42;2.10;99.90
67141;DHT22;54058;52.010;5.546;2024-01-07T03:08:08;2.10;99.90
67141;DHT22;54058;52.010;5.546;2024-01-07T03:10:34;2.10;99.90
67141;DHT22;54058;52.010;5.546;2024-01-07T03:13:00;2.10;99.90
67141;DHT22;54058;52.010;5.546;2024-01-07T03:15:26;2.00;99.90
67141;DHT22;54058;52.010;5.546;2024-01-07T03:17:52;2.10;99.90
67141;DHT22;54058;52.010;5.546;2024-01-07T03:20:18;2.10;99.90
67141;DHT22;54058;52.010;5.546;2024-01-07T03:22:43;2.20;99.90
67141;DHT22;54058;52.010;5.546;2024-01-07T03:25:09;2.20;99.90
67141;DHT22;54058;52.010;5.546;2024-01-07T03:27:35;2.20;99.90
67141;DHT22;54058;52.010;5.546;2024-01-07T03:30:00;2.20;99.90
67141;DHT22;54058;52.010;5.546;2024-01-07T03:32:26;2.20;99.90
67141;DHT22;54058;52.010;5.546;2024-01-07T03:34:52;2.10;99.90
67141;DHT22;54058;52.010;5.546;2024-01-07T03:37:17;2.10;99.90
67141;DHT22;54058;52.010;5.546;2024-01-07T03:39:47;2.10;99.90
67141;DHT22;54058;52.010;5.546;2024-01-07T03:42:13;2.10;99.90
67141;DHT22;54058;52.010;5.546;2024-01-07T03:44:39;2.10;99.90
67141;DHT22;54058;52.010;5.546;2024-01-07T03:47:06;2.10;99.90
67141;DHT22;54058;52.010;5.546;2024-01-07T03:49:31;2.00;99.90
67141;DHT22;54058;52.010;5.546;2024-01-07T03:51:57;2.00;99.90
67141;DHT22;54058;52.010;5.546;2024-01-07T03:54:23;2.00;99.90
67141;DHT22;54058;52.010;5.546;2024-01-07T03:56:48;2.00;99.90
67141;DHT22;54058;52.010;5.546;2024-01-07T03:59:14;2.10;99.90
67141;DHT22;54058;52.010;5.546;2024-01-07T04:01:39;2.10;99.90
67141;DHT22;54058;52.010;5.546;2024-01-07T04:04:05;2.10;99.90
67141;DHT22;54058;52.010;5.546;2024-01-07T04:06:31;2.00;99.90
67141;DHT22;54058;52.010;5.546;2024-01-07T04:08:56;2.00;99.90
67141;DHT22;54058;52.010;5.546;2024-01-07T04:11:22;2.00;99.90
67141;DHT22;54058;52.010;5.546;2024-01-07T04:13:47;2.00;99.90
67141;DHT22;54058;52.010;5.546;2024-01-07T04:16:20;2.00;99.90
67141;DHT22;54058;52.010;5.546;2024-01-07T04:18:47;2.00;99.90
67141;DHT22;54058;52.010;5.546;2024-01-07T04:21:12;2.00;99.90
67141;DHT22;54058;52.010;5.546;2024-01-07T04:23:39;2.00;99.90
67141;DHT22;54058;52.010;5.546;2024-01-07T04:26:06;2.00;99.90
67141;DHT22;54058;52.010;5.546;2024-01-07T04:28:32;1.90;99.90
67141;DHT22;54058;52.010;5.546;2024-01-07T04:30:58;1.90;99.90
67141;DHT22;54058;52.010;5.546;2024-01-07T04:33:23;1.80;99.90
67141;DHT22;54058;52.010;5.546;2024-01-07T04:35:49;1.90;99.90
67141;DHT22;54058;52.010;5.546;2024-01-07T04:38:15;1.90;99.90
67141;DHT22;54058;52.010;5.546;2024-01-07T04:40:40;1.90;99.90
67141;DHT22;54058;52.010;5.546;2024-01-07T04:43:06;1.90;99.90
67141;DHT22;54058;52.010;5.546;2024-01-07T04:45:31;1.90;99.90
67141;DHT22;54058;52.010;5.546;2024-01-07T04:47:57;1.90;99.90
67141;DHT22;54058;52.010;5.546;2024-01-07T04:50:23;1.90;99.90
67141;DHT22;54058;52.010;5.546;2024-01-07T04:52:48;1.90;99.90
67141;DHT22;54058;52.010;5.546;2024-01-07T04:55:14;2.00;99.90
67141;DHT22;54058;52.010;5.546;2024-01-07T04:57:39;2.00;99.90
67141;DHT22;54058;52.010;5.546;2024-01-07T05:00:05;2.00;99.90
67141;DHT22;54058;52.010;5.546;2024-01-07T05:02:31;2.00;99.90
67141;DHT22;54058;52.010;5.546;2024-01-07T05:04:57;1.90;99.90
67141;DHT22;54058;52.010;5.546;2024-01-07T05:07:23;1.90;99.90
67141;DHT22;54058;52.010;5.546;2024-01-07T05:09:48;1.90;99.90
67141;DHT22;54058;52.010;5.546;2024-01-07T05:12:14;1.90;99.90
67141;DHT22;54058;52.010;5.546;2024-01-07T05:14:40;1.90;99.90
67141;DHT22;54058;52.010;5.546;2024-01-07T05:17:08;1.90;99.90
67141;DHT22;54058;52.010;5.546;2024-01-07T05:19:33;1.90;99.90
67141;DHT22;54058;52.010;5.546;2024-01-07T05:22:00;1.80;99.90
67141;DHT22;54058;52.010;5.546;2024-01-07T05:24:26;1.90;99.90
67141;DHT22;54058;52.010;5.546;2024-01-07T05:26:51;1.90;99.90
67141;DHT22;54058;52.010;5.546;2024-01-07T05:29:17;1.80;99.90
67141;DHT22;54058;52.010;5.546;2024-01-07T05:31:43;1.80;99.90
67141;DHT22;54058;52.010;5.546;2024-01-07T05:34:08;1.80;99.90
67141;DHT22;54058;52.010;5.546;2024-01-07T05:36:34;1.80;99.90
67141;DHT22;54058;52.010;5.546;2024-01-07T05:38:59;1.80;99.90
67141;DHT22;54058;52.010;5.546;2024-01-07T05:41:25;1.80;99.90
67141;DHT22;54058;52.010;5.546;2024-01-07T05:43:51;1.80;99.90
67141;DHT22;54058;52.010;5.546;2024-01-07T05:46:17;1.80;99.90
67141;DHT22;54058;52.010;5.546;2024-01-07T05:48:43;1.80;99.90
67141;DHT22;54058;52.010;5.546;2024-01-07T05:51:09;1.80;99.90
67141;DHT22;54058;52.010;5.546;2024-01-07T05:53:35;1.80;99.90
67141;DHT22;54058;52.010;5.546;2024-01-07T05:56:01;1.90;99.90
67141;DHT22;54058;52.010;5.546;2024-01-07T05:58:27;1.80;99.90
67141;DHT22;54058;52.010;5.546;2024-01-07T06:00:53;1.80;99.90
67141;DHT22;54058;52.010;5.546;2024-01-07T06:03:18;1.80;99.90
67141;DHT22;54058;52.010;5.546;2024-01-07T06:05:44;1.80;99.90
67141;DHT22;54058;52.010;5.546;2024-01-07T06:08:09;1.80;99.90
67141;DHT22;54058;52.010;5.546;2024-01-07T06:10:35;1.80;99.90
67141;DHT22;54058;52.010;5.546;2024-01-07T06:13:01;1.80;99.90
67141;DHT22;54058;52.010;5.546;2024-01-07T06:15:28;1.80;99.90
67141;DHT22;54058;52.010;5.546;2024-01-07T06:17:54;1.70;99.90
67141;DHT22;54058;52.010;5.546;2024-01-07T06:20:19;1.80;99.90
67141;DHT22;54058;52.010;5.546;2024-01-07T06:22:45;1.80;99.90
67141;DHT22;54058;52.010;5.546;2024-01-07T06:25:11;1.80;99.90
67141;DHT22;54058;52.010;5.546;2024-01-07T06:27:38;1.80;99.90
67141;DHT22;54058;52.010;5.546;2024-01-07T06:30:05;1.80;99.90
67141;DHT22;54058;52.010;5.546;2024-01-07T06:32:31;1.90;99.90
67141;DHT22;54058;52.010;5.546;2024-01-07T06:34:58;1.90;99.90
67141;DHT22;54058;52.010;5.546;2024-01-07T06:37:23;1.80;99.90
67141;DHT22;54058;52.010;5.546;2024-01-07T06:39:49;1.80;99.90
67141;DHT22;54058;52.010;5.546;2024-01-07T06:42:15;1.80;99.90
67141;DHT22;54058;52.010;5.546;2024-01-07T06:44:40;1.80;99.90
67141;DHT22;54058;52.010;5.546;2024-01-07T06:47:06;1.80;99.90
67141;DHT22;54058;52.010;5.546;2024-01-07T06:49:32;1.80;99.90
67141;DHT22;54058;52.010;5.546;2024-01-07T06:51:57;1.80;99.90
67141;DHT22;54058;52.010;5.546;2024-01-07T06:54:23;1.80;99.90
67141;DHT22;54058;52.010;5.546;2024-01-07T06:56:48;1.80;99.90
67141;DHT22;54058;52.010;5.546;2024-01-07T06:59:14;1.80;99.90
67141;DHT22;54058;52.010;5.546;2024-01-07T07:01:40;1.80;99.90
67141;DHT22;54058;52.010;5.546;2024-01-07T07:04:05;1.80;99.90
67141;DHT22;54058;52.010;5.546;2024-01-07T07:06:31;1.80;99.90
67141;DHT22;54058;52.010;5.546;2024-01-07T07:08:57;1.80;99.90
67141;DHT22;54058;52.010;5.546;2024-01-07T07:11:22;1.70;99.90
67141;DHT22;54058;52.010;5.546;2024-01-07T07:13:48;1.80;99.90
67141;DHT22;54058;52.010;5.546;2024-01-07T07:16:14;1.70;99.90
67141;DHT22;54058;52.010;5.546;2024-01-07T07:18:39;1.70;99.90
67141;DHT22;54058;52.010;5.546;2024-01-07T07:21:05;1.70;99.90
67141;DHT22;54058;52.010;5.546;2024-01-07T07:23:31;1.70;99.90
67141;DHT22;54058;52.010;5.546;2024-01-07T07:25:56;1.70;99.90
67141;DHT22;54058;52.010;5.546;2024-01-07T07:28:22;1.70;99.90
67141;DHT22;54058;52.010;5.546;2024-01-07T07:30:48;1.80;99.90
67141;DHT22;54058;52.010;5.546;2024-01-07T07:33:13;1.80;99.90
67141;DHT22;54058;52.010;5.546;2024-01-07T07:35:39;1.80;99.90
67141;DHT22;54058;52.010;5.546;2024-01-07T07:38:07;1.80;99.90
67141;DHT22;54058;52.010;5.546;2024-01-07T07:40:32;1.70;99.90
67141;DHT22;54058;52.010;5.546;2024-01-07T07:42:58;1.70;99.90
67141;DHT22;54058;52.010;5.546;2024-01-07T07:45:24;1.70;99.90
67141;DHT22;54058;52.010;5.546;2024-01-07T07:47:49;1.80;99.90
67141;DHT22;54058;52.010;5.546;2024-01-07T07:50:15;1.70;99.90
67141;DHT22;54058;52.010;5.546;2024-01-07T07:52:44;1.70;99.90
67141;DHT22;54058;52.010;5.546;2024-01-07T07:55:10;1.70;99.90
67141;DHT22;54058;52.010;5.546;2024-01-07T07:57:36;1.60;99.90
67141;DHT22;54058;52.010;5.546;2024-01-07T08:00:04;1.60;99.90
67141;DHT22;54058;52.010;5.546;2024-01-07T08:02:30;1.60;99.90
67141;DHT22;54058;52.010;5.546;2024-01-07T08:04:56;1.60;99.90
67141;DHT22;54058;52.010;5.546;2024-01-07T08:07:21;1.60;99.90
67141;DHT22;54058;52.010;5.546;2024-01-07T08:09:47;1.60;99.90
67141;DHT22;54058;52.010;5.546;2024-01-07T08:12:13;1.70;99.90
67141;DHT22;54058;52.010;5.546;2024-01-07T08:14:38;1.60;99.90
67141;DHT22;54058;52.010;5.546;2024-01-07T08:17:07;1.50;99.90
67141;DHT22;54058;52.010;5.546;2024-01-07T08:19:33;1.50;99.90
67141;DHT22;54058;52.010;5.546;2024-01-07T08:21:59;1.50;99.90
67141;DHT22;54058;52.010;5.546;2024-01-07T08:24:24;1.60;99.90
67141;DHT22;54058;52.010;5.546;2024-01-07T08:26:50;1.50;99.90
67141;DHT22;54058;52.010;5.546;2024-01-07T08:29:17;1.40;99.90
67141;DHT22;54058;52.010;5.546;2024-01-07T08:31:42;1.50;99.90
67141;DHT22;54058;52.010;5.546;2024-01-07T08:34:08;1.50;99.90
67141;DHT22;54058;52.010;5.546;2024-01-07T08:36:34;1.40;99.90
67141;DHT22;54058;52.010;5.546;2024-01-07T08:38:59;1.40;99.90
67141;DHT22;54058;52.010;5.546;2024-01-07T08:41:25;1.40;99.90
67141;DHT22;54058;52.010;5.546;2024-01-07T08:43:52;1.40;99.90
67141;DHT22;54058;52.010;5.546;2024-01-07T08:46:20;1.40;99.90
67141;DHT22;54058;52.010;5.546;2024-01-07T08:48:46;1.40;99.90
67141;DHT22;54058;52.010;5.546;2024-01-07T08:51:12;1.40;99.90
67141;DHT22;54058;52.010;5.546;2024-01-07T08:53:39;1.30;99.90
67141;DHT22;54058;52.010;5.546;2024-01-07T08:56:05;1.30;99.90
67141;DHT22;54058;52.010;5.546;2024-01-07T08:58:32;1.40;99.90
67141;DHT22;54058;52.010;5.546;2024-01-07T09:00:58;1.30;99.90
67141;DHT22;54058;52.010;5.546;2024-01-07T09:03:24;1.30;99.30
67141;DHT22;54058;52.010;5.546;2024-01-07T09:05:49;1.30;99.90
67141;DHT22;54058;52.010;5.546;2024-01-07T09:08:15;1.30;99.90
67141;DHT22;54058;52.010;5.546;2024-01-07T09:10:40;1.30;99.90
67141;DHT22;54058;52.010;5.546;2024-01-07T09:13:06;1.40;99.90
67141;DHT22;54058;52.010;5.546;2024-01-07T09:15:32;1.30;99.90
67141;DHT22;54058;52.010;5.546;2024-01-07T09:17:58;1.30;99.90
67141;DHT22;54058;52.010;5.546;2024-01-07T09:20:24;1.30;99.90
67141;DHT22;54058;52.010;5.546;2024-01-07T09:22:49;1.40;99.90
67141;DHT22;54058;52.010;5.546;2024-01-07T09:25:15;1.30;99.90
67141;DHT22;54058;52.010;5.546;2024-01-07T09:27:42;1.30;99.80
67141;DHT22;54058;52.010;5.546;2024-01-07T09:30:09;1.30;99.90
67141;DHT22;54058;52.010;5.546;2024-01-07T09:32:41;1.30;99.90
67141;DHT22;54058;52.010;5.546;2024-01-07T09:35:07;1.40;99.90
67141;DHT22;54058;52.010;5.546;2024-01-07T09:37:33;1.40;99.90
67141;DHT22;54058;52.010;5.546;2024-01-07T09:39:58;1.50;99.90
67141;DHT22;54058;52.010;5.546;2024-01-07T09:42:24;1.50;99.90
67141;DHT22;54058;52.010;5.546;2024-01-07T09:44:51;1.60;99.90
67141;DHT22;54058;52.010;5.546;2024-01-07T09:47:16;1.60;99.60
67141;DHT22;54058;52.010;5.546;2024-01-07T09:49:43;1.50;99.90
67141;DHT22;54058;52.010;5.546;2024-01-07T09:52:10;1.50;99.90
67141;DHT22;54058;52.010;5.546;2024-01-07T09:54:37;1.60;99.90
67141;DHT22;54058;52.010;5.546;2024-01-07T09:57:06;1.50;99.90
67141;DHT22;54058;52.010;5.546;2024-01-07T09:59:32;1.50;99.80
67141;DHT22;54058;52.010;5.546;2024-01-07T10:01:58;1.50;99.30
67141;DHT22;54058;52.010;5.546;2024-01-07T10:04:25;1.40;99.90
67141;DHT22;54058;52.010;5.546;2024-01-07T10:06:51;1.40;98.40
67141;DHT22;54058;52.010;5.546;2024-01-07T10:09:22;1.40;98.90
67141;DHT22;54058;52.010;5.546;2024-01-07T10:11:49;1.40;98.80
67141;DHT22;54058;52.010;5.546;2024-01-07T10:14:15;1.40;99.30
67141;DHT22;54058;52.010;5.546;2024-01-07T10:16:41;1.50;99.90
67141;DHT22;54058;52.010;5.546;2024-01-07T10:19:07;1.50;99.00
67141;DHT22;54058;52.010;5.546;2024-01-07T10:21:34;1.50;98.20
67141;DHT22;54058;52.010;5.546;2024-01-07T10:24:13;1.50;98.90
67141;DHT22;54058;52.010;5.546;2024-01-07T10:26:40;1.50;97.70
67141;DHT22;54058;52.010;5.546;2024-01-07T10:29:06;1.60;98.70
67141;DHT22;54058;52.010;5.546;2024-01-07T10:31:33;1.60;98.80
67141;DHT22;54058;52.010;5.546;2024-01-07T10:33:59;1.60;98.10
67141;DHT22;54058;52.010;5.546;2024-01-07T10:36:25;1.60;98.30
67141;DHT22;54058;52.010;5.546;2024-01-07T10:38:51;1.70;97.80
67141;DHT22;54058;52.010;5.546;2024-01-07T10:41:20;1.70;97.60
67141;DHT22;54058;52.010;5.546;2024-01-07T10:43:49;1.70;96.40
67141;DHT22;54058;52.010;5.546;2024-01-07T10:46:15;1.70;96.50
67141;DHT22;54058;52.010;5.546;2024-01-07T10:51:16;1.70;97.00
67141;DHT22;54058;52.010;5.546;2024-01-07T10:53:46;1.60;96.00
67141;DHT22;54058;52.010;5.546;2024-01-07T10:56:14;1.60;96.20
67141;DHT22;54058;52.010;5.546;2024-01-07T10:58:41;1.60;96.50
67141;DHT22;54058;52.010;5.546;2024-01-07T11:01:08;1.50;96.00
67141;DHT22;54058;52.010;5.546;2024-01-07T11:04:41;1.60;97.10
67141;DHT22;54058;52.010;5.546;2024-01-07T11:06:53;1.60;95.30
67141;DHT22;54058;52.010;5.546;2024-01-07T11:09:36;1.70;95.80
67141;DHT22;54058;52.010;5.546;2024-01-07T11:12:03;1.70;93.40
67141;DHT22;54058;52.010;5.546;2024-01-07T11:14:38;1.70;92.60
67141;DHT22;54058;52.010;5.546;2024-01-07T11:17:06;1.70;94.10
67141;DHT22;54058;52.010;5.546;2024-01-07T11:19:32;1.70;93.80
67141;DHT22;54058;52.010;5.546;2024-01-07T11:22:20;1.90;94.60
67141;DHT22;54058;52.010;5.546;2024-01-07T11:24:47;1.80;93.60
67141;DHT22;54058;52.010;5.546;2024-01-07T11:27:13;1.80;93.90
67141;DHT22;54058;52.010;5.546;2024-01-07T11:29:38;1.90;94.30
67141;DHT22;54058;52.010;5.546;2024-01-07T11:32:05;2.00;94.00
67141;DHT22;54058;52.010;5.546;2024-01-07T11:34:41;1.90;94.00
67141;DHT22;54058;52.010;5.546;2024-01-07T11:37:12;1.90;92.50
67141;DHT22;54058;52.010;5.546;2024-01-07T11:39:41;1.90;93.30
67141;DHT22;54058;52.010;5.546;2024-01-07T11:42:07;1.90;92.50
67141;DHT22;54058;52.010;5.546;2024-01-07T11:44:36;1.80;93.20
67141;DHT22;54058;52.010;5.546;2024-01-07T11:47:05;1.80;92.40
67141;DHT22;54058;52.010;5.546;2024-01-07T11:49:34;1.80;93.70
67141;DHT22;54058;52.010;5.546;2024-01-07T11:52:00;1.80;92.40
67141;DHT22;54058;52.010;5.546;2024-01-07T11:54:27;1.80;92.50
67141;DHT22;54058;52.010;5.546;2024-01-07T11:56:54;1.90;93.20
67141;DHT22;54058;52.010;5.546;2024-01-07T11:59:20;1.90;93.90
67141;DHT22;54058;52.010;5.546;2024-01-07T12:01:45;2.00;93.30
67141;DHT22;54058;52.010;5.546;2024-01-07T12:04:11;2.00;91.60
67141;DHT22;54058;52.010;5.546;2024-01-07T12:06:38;2.00;92.60
67141;DHT22;54058;52.010;5.546;2024-01-07T12:09:04;2.10;92.50
67141;DHT22;54058;52.010;5.546;2024-01-07T12:11:30;2.20;90.60
67141;DHT22;54058;52.010;5.546;2024-01-07T12:13:57;2.20;91.70
67141;DHT22;54058;52.010;5.546;2024-01-07T12:16:22;2.20;92.20
67141;DHT22;54058;52.010;5.546;2024-01-07T12:18:48;2.10;88.40
67141;DHT22;54058;52.010;5.546;2024-01-07T12:21:19;2.10;89.10
67141;DHT22;54058;52.010;5.546;2024-01-07T12:23:51;2.10;85.10
67141;DHT22;54058;52.010;5.546;2024-01-07T12:26:16;2.10;87.40
67141;DHT22;54058;52.010;5.546;2024-01-07T12:28:44;2.10;90.30
67141;DHT22;54058;52.010;5.546;2024-01-07T12:31:10;2.10;90.00
67141;DHT22;54058;52.010;5.546;2024-01-07T12:33:39;2.10;90.30
67141;DHT22;54058;52.010;5.546;2024-01-07T12:36:07;2.20;88.70
67141;DHT22;54058;52.010;5.546;2024-01-07T12:38:33;2.20;88.90
67141;DHT22;54058;52.010;5.546;2024-01-07T12:40:58;2.20;84.30
67141;DHT22;54058;52.010;5.546;2024-01-07T12:43:24;2.20;89.40
67141;DHT22;54058;52.010;5.546;2024-01-07T12:45:50;2.20;87.90
67141;DHT22;54058;52.010;5.546;2024-01-07T12:48:15;2.20;88.00
67141;DHT22;54058;52.010;5.546;2024-01-07T12:50:41;2.20;87.30
67141;DHT22;54058;52.010;5.546;2024-01-07T12:53:07;2.30;89.20
67141;DHT22;54058;52.010;5.546;2024-01-07T12:55:33;2.20;88.80
67141;DHT22;54058;52.010;5.546;2024-01-07T12:57:59;2.20;87.60
67141;DHT22;54058;52.010;5.546;2024-01-07T13:00:25;2.10;87.10
67141;DHT22;54058;52.010;5.546;2024-01-07T13:02:52;2.10;86.40
67141;DHT22;54058;52.010;5.546;2024-01-07T13:05:17;2.10;83.10
67141;DHT22;54058;52.010;5.546;2024-01-07T13:07:44;2.00;81.40
67141;DHT22;54058;52.010;5.546;2024-01-07T13:10:10;2.00;86.00
67141;DHT22;54058;52.010;5.546;2024-01-07T13:12:35;2.10;85.60
67141;DHT22;54058;52.010;5.546;2024-01-07T13:15:05;2.10;83.10
67141;DHT22;54058;52.010;5.546;2024-01-07T13:17:31;2.00;85.60
67141;DHT22;54058;52.010;5.546;2024-01-07T13:20:01;2.00;85.30
67141;DHT22;54058;52.010;5.546;2024-01-07T13:22:26;2.00;85.30
67141;DHT22;54058;52.010;5.546;2024-01-07T13:24:52;2.00;85.60
67141;DHT22;54058;52.010;5.546;2024-01-07T13:27:19;2.10;85.40
67141;DHT22;54058;52.010;5.546;2024-01-07T13:29:46;2.10;81.20
67141;DHT22;54058;52.010;5.546;2024-01-07T13:32:15;2.20;85.60
67141;DHT22;54058;52.010;5.546;2024-01-07T13:34:44;2.30;87.00
67141;DHT22;54058;52.010;5.546;2024-01-07T13:37:09;2.30;87.20
67141;DHT22;54058;52.010;5.546;2024-01-07T13:39:36;2.30;82.40
67141;DHT22;54058;52.010;5.546;2024-01-07T13:42:02;2.30;83.90
67141;DHT22;54058;52.010;5.546;2024-01-07T13:44:28;2.30;82.00
67141;DHT22;54058;52.010;5.546;2024-01-07T13:46:53;2.40;86.00
67141;DHT22;54058;52.010;5.546;2024-01-07T13:49:19;2.40;87.20
67141;DHT22;54058;52.010;5.546;2024-01-07T13:51:45;2.40;86.50
67141;DHT22;54058;52.010;5.546;2024-01-07T13:54:11;2.40;83.30
67141;DHT22;54058;52.010;5.546;2024-01-07T13:56:42;2.40;87.10
67141;DHT22;54058;52.010;5.546;2024-01-07T13:59:10;2.50;87.40
67141;DHT22;54058;52.010;5.546;2024-01-07T14:01:36;2.40;87.80
67141;DHT22;54058;52.010;5.546;2024-01-07T14:04:02;2.30;85.20
67141;DHT22;54058;52.010;5.546;2024-01-07T14:06:28;2.30;87.00
67141;DHT22;54058;52.010;5.546;2024-01-07T14:08:54;2.40;88.80
67141;DHT22;54058;52.010;5.546;2024-01-07T14:11:20;2.40;87.80
67141;DHT22;54058;52.010;5.546;2024-01-07T14:13:47;2.40;85.80
67141;DHT22;54058;52.010;5.546;2024-01-07T14:16:13;2.40;86.50
67141;DHT22;54058;52.010;5.546;2024-01-07T14:18:39;2.30;84.30
67141;DHT22;54058;52.010;5.546;2024-01-07T14:21:05;2.40;87.90
67141;DHT22;54058;52.010;5.546;2024-01-07T14:23:31;2.40;88.80
67141;DHT22;54058;52.010;5.546;2024-01-07T14:25:58;2.40;86.80
67141;DHT22;54058;52.010;5.546;2024-01-07T14:28:23;2.30;84.50
67141;DHT22;54058;52.010;5.546;2024-01-07T14:30:49;2.30;87.80
67141;DHT22;54058;52.010;5.546;2024-01-07T14:33:15;2.30;88.20
67141;DHT22;54058;52.010;5.546;2024-01-07T14:35:40;2.30;86.00
67141;DHT22;54058;52.010;5.546;2024-01-07T14:38:06;2.20;84.40
67141;DHT22;54058;52.010;5.546;2024-01-07T14:40:32;2.10;86.50
67141;DHT22;54058;52.010;5.546;2024-01-07T14:42:58;2.20;86.90
67141;DHT22;54058;52.010;5.546;2024-01-07T14:45:25;2.10;87.00
67141;DHT22;54058;52.010;5.546;2024-01-07T14:47:54;2.10;85.70
67141;DHT22;54058;52.010;5.546;2024-01-07T14:50:20;2.00;85.70
67141;DHT22;54058;52.010;5.546;2024-01-07T14:52:49;1.90;86.80
67141;DHT22;54058;52.010;5.546;2024-01-07T14:55:15;1.90;86.50
67141;DHT22;54058;52.010;5.546;2024-01-07T14:57:41;1.90;84.80
67141;DHT22;54058;52.010;5.546;2024-01-07T15:00:07;1.80;84.40
67141;DHT22;54058;52.010;5.546;2024-01-07T15:02:33;1.80;83.80
67141;DHT22;54058;52.010;5.546;2024-01-07T15:05:00;1.70;82.90
67141;DHT22;54058;52.010;5.546;2024-01-07T15:07:25;1.70;84.90
67141;DHT22;54058;52.010;5.546;2024-01-07T15:09:51;1.70;83.90
67141;DHT22;54058;52.010;5.546;2024-01-07T15:12:17;1.70;85.70
67141;DHT22;54058;52.010;5.546;2024-01-07T15:14:44;1.70;86.40
67141;DHT22;54058;52.010;5.546;2024-01-07T15:17:10;1.70;87.30
67141;DHT22;54058;52.010;5.546;2024-01-07T15:19:35;1.70;86.50
67141;DHT22;54058;52.010;5.546;2024-01-07T15:22:01;1.60;85.90
67141;DHT22;54058;52.010;5.546;2024-01-07T15:24:28;1.60;87.20
67141;DHT22;54058;52.010;5.546;2024-01-07T15:26:54;1.60;86.30
67141;DHT22;54058;52.010;5.546;2024-01-07T15:29:19;1.50;84.40
67141;DHT22;54058;52.010;5.546;2024-01-07T15:31:45;1.50;86.70
67141;DHT22;54058;52.010;5.546;2024-01-07T15:34:11;1.50;86.50
67141;DHT22;54058;52.010;5.546;2024-01-07T15:36:38;1.40;86.00
67141;DHT22;54058;52.010;5.546;2024-01-07T15:39:04;1.40;86.60
67141;DHT22;54058;52.010;5.546;2024-01-07T15:41:30;1.30;84.00